createdAt,value
2022-12-01T00:01:09.021Z,101661.84
2022-12-01T00:03:35.939Z,101660.88
2022-12-01T00:06:04.254Z,101666.97
2022-12-01T00:08:31.918Z,101669.50
2022-12-01T00:11:10.313Z,101665.97
2022-12-01T00:13:37.699Z,101665.00
2022-12-01T00:16:17.039Z,101664.84
2022-12-01T00:18:44.535Z,101665.53
2022-12-01T00:21:15.470Z,101666.31
2022-12-01T00:23:47.407Z,101668.88
2022-12-01T00:26:14.768Z,101671.50
2022-12-01T00:28:41.311Z,101672.25
2022-12-01T00:31:08.906Z,101672.09
2022-12-01T00:33:35.451Z,101679.81
2022-12-01T00:36:02.083Z,101674.56
2022-12-01T00:38:29.181Z,101676.34
2022-12-01T00:40:55.718Z,101676.22
2022-12-01T00:43:22.350Z,101678.69
2022-12-01T00:45:48.973Z,101681.13
2022-12-01T00:48:15.591Z,101674.91
2022-12-01T00:50:42.395Z,101684.28
2022-12-01T00:53:08.969Z,101682.31
2022-12-01T00:55:36.283Z,101687.53
2022-12-01T00:58:02.885Z,101684.06
2022-12-01T01:00:29.452Z,101686.59
2022-12-01T01:02:56.008Z,101694.28
2022-12-01T01:05:23.283Z,101692.34
2022-12-01T01:07:49.932Z,101700.13
2022-12-01T01:10:16.597Z,101700.03
2022-12-01T01:12:43.123Z,101701.75
2022-12-01T01:15:10.207Z,101700.69
2022-12-01T01:17:36.747Z,101704.88
2022-12-01T01:20:06.908Z,101705.63
2022-12-01T01:22:35.153Z,101714.28
2022-12-01T01:25:01.758Z,101714.28
2022-12-01T01:27:28.350Z,101709.81
2022-12-01T01:29:54.866Z,101711.53
2022-12-01T01:35:23.798Z,101715.56
2022-12-01T01:37:50.985Z,101717.75
2022-12-01T01:40:18.181Z,101723.66
2022-12-01T01:42:44.760Z,101719.13
2022-12-01T01:45:38.059Z,101721.88
2022-12-01T01:48:04.812Z,101722.81
2022-12-01T01:50:31.465Z,101727.00
2022-12-01T01:53:01.350Z,101729.53
2022-12-01T01:55:30.020Z,101722.59
2022-12-01T01:57:56.868Z,101726.13
2022-12-01T02:00:23.493Z,101723.31
2022-12-01T02:02:51.296Z,101724.94
2022-12-01T02:05:26.974Z,101725.13
2022-12-01T02:07:56.715Z,101725.13
2022-12-01T02:10:52.022Z,101717.91
2022-12-01T02:13:37.890Z,101716.13
2022-12-01T02:16:40.278Z,101723.78
2022-12-01T02:19:31.739Z,101711.44
2022-12-01T02:22:16.972Z,101715.63
2022-12-01T02:24:43.472Z,101712.00
2022-12-01T02:27:34.927Z,101710.13
2022-12-01T02:30:14.972Z,101718.06
2022-12-01T02:32:44.235Z,101718.88
2022-12-01T02:35:14.984Z,101711.75
2022-12-01T02:38:12.202Z,101710.94
2022-12-01T02:41:01.551Z,101713.47
2022-12-01T02:43:46.978Z,101710.75
2022-12-01T02:46:31.204Z,101714.22
2022-12-01T02:49:01.866Z,101709.75
2022-12-01T02:51:31.851Z,101704.63
2022-12-01T02:54:00.599Z,101712.56
2022-12-01T02:56:27.232Z,101717.00
2022-12-01T02:58:53.804Z,101723.22
2022-12-01T03:01:26.403Z,101718.06
2022-12-01T03:04:14.764Z,101716.34
2022-12-01T03:07:00.181Z,101714.72
2022-12-01T03:09:56.321Z,101717.19
2022-12-01T03:12:56.742Z,101717.91
2022-12-01T03:15:53.388Z,101713.38
2022-12-01T03:18:35.575Z,101721.72
2022-12-01T03:21:15.158Z,101721.41
2022-12-01T03:23:47.352Z,101714.34
2022-12-01T03:26:18.273Z,101720.56
2022-12-01T03:28:52.413Z,101715.34
2022-12-01T03:31:23.127Z,101718.78
2022-12-01T03:33:59.215Z,101717.94
2022-12-01T03:36:32.774Z,101705.56
2022-12-01T03:39:04.759Z,101721.47
2022-12-01T03:41:48.748Z,101715.25
2022-12-01T03:44:21.282Z,101709.81
2022-12-01T03:46:58.464Z,101715.81
2022-12-01T03:49:26.837Z,101717.34
2022-12-01T03:51:59.186Z,101717.16
2022-12-01T03:55:03.254Z,101712.59
2022-12-01T03:57:41.007Z,101716.84
2022-12-01T04:00:08.809Z,101712.41
2022-12-01T04:02:39.249Z,101719.38
2022-12-01T04:05:06.964Z,101724.44
2022-12-01T04:07:33.588Z,101731.28
2022-12-01T04:10:00.178Z,101724.25
2022-12-01T04:12:29.438Z,101731.28
2022-12-01T04:14:57.648Z,101732.19
2022-12-01T04:17:25.282Z,101734.03
2022-12-01T04:19:52.696Z,101731.22
2022-12-01T04:22:19.671Z,101725.88
2022-12-01T04:24:46.221Z,101726.72
2022-12-01T04:27:13.130Z,101730.97
2022-12-01T04:29:39.781Z,101735.13
2022-12-01T04:32:06.532Z,101728.91
2022-12-01T04:34:33.660Z,101734.22
2022-12-01T04:37:00.392Z,101735.28
2022-12-01T04:39:26.910Z,101731.97
2022-12-01T04:41:53.447Z,101736.28
2022-12-01T04:44:20.018Z,101731.75
2022-12-01T04:46:46.663Z,101733.13
2022-12-01T04:49:13.290Z,101735.47
2022-12-01T04:51:39.781Z,101737.69
2022-12-01T04:54:06.467Z,101734.88
2022-12-01T04:56:33.598Z,101732.31
2022-12-01T04:59:00.677Z,101739.22
2022-12-01T05:01:27.760Z,101735.69
2022-12-01T05:03:54.336Z,101738.22
2022-12-01T05:06:26.744Z,101739.94
2022-12-01T05:08:58.875Z,101748.59
2022-12-01T05:11:27.242Z,101740.75
2022-12-01T05:13:53.895Z,101742.53
2022-12-01T05:16:26.489Z,101747.06
2022-12-01T05:19:14.323Z,101746.94
2022-12-01T05:21:41.881Z,101750.56
2022-12-01T05:24:09.530Z,101751.56
2022-12-01T05:26:36.515Z,101744.69
2022-12-01T05:29:03.458Z,101755.16
2022-12-01T05:31:30.828Z,101754.19
2022-12-01T05:33:57.490Z,101749.78
2022-12-01T05:36:24.289Z,101754.00
2022-12-01T05:38:50.854Z,101747.78
2022-12-01T05:41:17.488Z,101756.53
2022-12-01T05:43:44.029Z,101746.16
2022-12-01T05:46:10.602Z,101749.78
2022-12-01T05:48:37.322Z,101746.94
2022-12-01T05:51:12.792Z,101747.50
2022-12-01T05:53:39.495Z,101752.66
2022-12-01T05:56:07.157Z,101759.63
2022-12-01T05:58:34.688Z,101764.94
2022-12-01T06:01:02.184Z,101767.56
2022-12-01T06:03:28.650Z,101769.19
2022-12-01T06:05:55.252Z,101764.84
2022-12-01T06:08:21.760Z,101768.34
2022-12-01T06:10:48.348Z,101771.72
2022-12-01T06:13:14.852Z,101771.63
2022-12-01T06:15:41.425Z,101769.97
2022-12-01T06:18:08.063Z,101777.19
2022-12-01T06:20:34.647Z,101775.56
2022-12-01T06:23:01.185Z,101771.25
2022-12-01T06:25:27.717Z,101781.72
2022-12-01T06:27:58.538Z,101774.50
2022-12-01T06:30:25.942Z,101775.19
2022-12-01T06:32:52.516Z,101790.03
2022-12-01T06:35:19.161Z,101788.19
2022-12-01T06:37:45.858Z,101792.56
2022-12-01T06:40:12.648Z,101790.03
2022-12-01T06:42:39.198Z,101795.25
2022-12-01T06:45:06.202Z,101800.56
2022-12-01T06:47:32.765Z,101805.97
2022-12-01T06:49:59.348Z,101806.97
2022-12-01T06:52:25.922Z,101807.16
2022-12-01T06:54:52.556Z,101810.75
2022-12-01T06:57:19.458Z,101812.59
2022-12-01T06:59:46.537Z,101807.34
2022-12-01T07:02:13.800Z,101805.72
2022-12-01T07:04:40.377Z,101808.44
2022-12-01T07:07:06.812Z,101799.03
2022-12-01T07:09:34.122Z,101805.34
2022-12-01T07:12:00.645Z,101811.66
2022-12-01T07:14:27.805Z,101802.34
2022-12-01T07:16:54.794Z,101806.81
2022-12-01T07:19:21.442Z,101808.69
2022-12-01T07:21:47.979Z,101807.88
2022-12-01T07:24:14.537Z,101809.66
2022-12-01T07:26:42.425Z,101817.81
2022-12-01T07:29:09.606Z,101811.28
2022-12-01T07:31:37.662Z,101810.03
2022-12-01T07:34:04.915Z,101822.56
2022-12-01T07:36:31.787Z,101820.19
2022-12-01T07:38:58.567Z,101827.34
2022-12-01T07:41:25.394Z,101828.97
2022-12-01T07:43:52.203Z,101828.88
2022-12-01T07:46:24.531Z,101826.25
2022-12-01T07:48:52.113Z,101828.97
2022-12-01T07:51:19.415Z,101830.59
2022-12-01T07:53:47.670Z,101825.19
2022-12-01T07:56:14.263Z,101814.59
2022-12-01T07:58:41.022Z,101821.66
2022-12-01T08:01:13.358Z,101812.16
2022-12-01T08:03:40.449Z,101822.88
2022-12-01T08:06:08.209Z,101825.50
2022-12-01T08:08:37.010Z,101831.75
2022-12-01T08:11:06.232Z,101827.50
2022-12-01T08:13:33.115Z,101835.53
2022-12-01T08:16:03.755Z,101833.81
2022-12-01T08:18:30.677Z,101826.88
2022-12-01T08:20:58.384Z,101838.25
2022-12-01T08:23:25.133Z,101838.16
2022-12-01T08:25:52.586Z,101840.75
2022-12-01T08:28:19.838Z,101842.59
2022-12-01T08:30:47.362Z,101847.75
2022-12-01T08:33:14.002Z,101846.84
2022-12-01T08:35:40.662Z,101846.91
2022-12-01T08:38:07.403Z,101854.78
2022-12-01T08:40:36.963Z,101847.00
2022-12-01T08:43:04.096Z,101854.94
2022-12-01T08:45:30.864Z,101855.13
2022-12-01T08:47:58.936Z,101849.16
2022-12-01T08:50:27.228Z,101849.16
2022-12-01T08:52:54.111Z,101852.75
2022-12-01T08:55:22.045Z,101855.47
2022-12-01T08:57:48.946Z,101856.53
2022-12-01T09:00:16.284Z,101855.09
2022-12-01T09:02:42.879Z,101866.59
2022-12-01T09:05:10.115Z,101859.78
2022-12-01T09:07:36.717Z,101863.56
2022-12-01T09:10:04.558Z,101855.78
2022-12-01T09:12:31.212Z,101847.84
2022-12-01T09:14:57.720Z,101864.38
2022-12-01T09:17:24.482Z,101861.59
2022-12-01T09:19:51.441Z,101861.59
2022-12-01T09:22:18.312Z,101860.66
2022-12-01T09:24:45.176Z,101867.47
2022-12-01T09:27:11.846Z,101863.59
2022-12-01T09:29:40.694Z,101868.69
2022-12-01T09:32:07.347Z,101874.63
2022-12-01T09:34:34.038Z,101870.84
2022-12-01T09:37:00.791Z,101865.63
2022-12-01T09:39:28.123Z,101867.31
2022-12-01T09:42:08.405Z,101867.25
2022-12-01T09:44:47.618Z,101859.75
2022-12-01T09:47:34.307Z,101872.09
2022-12-01T09:50:11.134Z,101857.53
2022-12-01T09:52:51.401Z,101850.94
2022-12-01T09:55:21.116Z,101865.28
2022-12-01T09:57:49.829Z,101863.72
2022-12-01T10:00:22.482Z,101862.25
2022-12-01T10:02:54.872Z,101854.50
2022-12-01T10:05:26.797Z,101855.66
2022-12-01T10:08:01.895Z,101848.69
2022-12-01T10:10:36.353Z,101853.03
2022-12-01T10:13:02.980Z,101844.53
2022-12-01T10:15:49.603Z,101849.22
2022-12-01T10:18:45.683Z,101849.72
2022-12-01T10:21:33.211Z,101843.00
2022-12-01T10:24:17.854Z,101843.97
2022-12-01T10:27:17.045Z,101832.81
2022-12-01T10:29:50.128Z,101834.78
2022-12-01T10:32:30.592Z,101836.75
2022-12-01T10:34:57.522Z,101830.03
2022-12-01T10:37:29.655Z,101837.25
2022-12-01T10:39:58.510Z,101828.72
2022-12-01T10:42:34.292Z,101825.41
2022-12-01T10:45:03.151Z,101824.03
2022-12-01T10:47:31.406Z,101820.66
2022-12-01T10:49:58.434Z,101819.19
2022-12-01T10:52:37.653Z,101819.19
2022-12-01T10:55:29.039Z,101829.69
2022-12-01T10:57:58.026Z,101825.19
2022-12-01T11:00:58.169Z,101825.91
2022-12-01T11:03:22.644Z,101813.63
2022-12-01T11:05:58.464Z,101819.78
2022-12-01T11:08:29.914Z,101815.25
2022-12-01T11:10:57.146Z,101816.81
2022-12-01T11:13:28.463Z,101816.75
2022-12-01T11:15:58.579Z,101811.50
2022-12-01T11:18:28.148Z,101811.34
2022-12-01T11:21:27.122Z,101808.47
2022-12-01T11:23:56.014Z,101807.47
2022-12-01T11:26:31.243Z,101819.59
2022-12-01T11:29:01.638Z,101807.97
2022-12-01T11:31:48.018Z,101806.91
2022-12-01T11:34:36.050Z,101808.63
2022-12-01T11:37:17.372Z,101806.75
2022-12-01T11:39:48.081Z,101813.78
2022-12-01T11:42:30.753Z,101808.53
2022-12-01T11:45:18.479Z,101803.38
2022-12-01T11:48:02.204Z,101807.56
2022-12-01T11:50:32.726Z,101804.78
2022-12-01T11:52:59.560Z,101809.69
2022-12-01T11:55:28.794Z,101806.06
2022-12-01T11:58:02.837Z,101797.41
2022-12-01T12:00:52.609Z,101806.25
2022-12-01T12:03:41.165Z,101797.41
2022-12-01T12:06:32.333Z,101803.47
2022-12-01T12:08:54.735Z,101800.09
2022-12-01T12:11:28.259Z,101795.00
2022-12-01T12:14:06.804Z,101798.69
2022-12-01T12:16:38.690Z,101790.03
2022-12-01T12:19:33.829Z,101798.88
2022-12-01T12:22:19.091Z,101796.06
2022-12-01T12:25:02.455Z,101797.91
2022-12-01T12:27:37.869Z,101791.03
2022-12-01T12:30:18.030Z,101797.16
2022-12-01T12:33:07.471Z,101789.28
2022-12-01T12:35:39.934Z,101795.44
2022-12-01T12:38:57.284Z,101794.63
2022-12-01T12:41:36.224Z,101788.53
2022-12-01T12:44:10.682Z,101787.81
2022-12-01T12:46:55.705Z,101787.72
2022-12-01T12:49:29.267Z,101787.72
2022-12-01T12:52:08.374Z,101791.31
2022-12-01T12:54:57.329Z,101784.50
2022-12-01T12:57:35.230Z,101781.00
2022-12-01T13:00:16.378Z,101782.66
2022-12-01T13:02:57.800Z,101774.59
2022-12-01T13:05:47.043Z,101782.47
2022-12-01T13:08:20.424Z,101778.13
2022-12-01T13:10:58.268Z,101787.91
2022-12-01T13:13:37.778Z,101791.66
2022-12-01T13:16:07.259Z,101785.69
2022-12-01T13:18:39.307Z,101786.56
2022-12-01T13:21:07.281Z,101787.25
2022-12-01T13:23:36.484Z,101787.97
2022-12-01T13:26:10.658Z,101782.66
2022-12-01T13:28:50.403Z,101781.00
2022-12-01T13:31:19.255Z,101783.44
2022-12-01T13:33:54.155Z,101788.81
2022-12-01T13:39:18.860Z,101776.81
2022-12-01T13:41:46.847Z,101781.31
2022-12-01T13:44:26.062Z,101784.78
2022-12-01T13:47:04.280Z,101772.38
2022-12-01T13:49:40.480Z,101772.44
2022-12-01T13:52:16.634Z,101770.66
2022-12-01T13:55:07.704Z,101774.13
2022-12-01T13:57:38.775Z,101769.53
2022-12-01T14:00:20.769Z,101761.47
2022-12-01T14:03:31.578Z,101763.31
2022-12-01T14:06:19.566Z,101770.19
2022-12-01T14:08:48.913Z,101771.16
2022-12-01T14:11:22.371Z,101776.50
2022-12-01T14:14:02.663Z,101770.34
2022-12-01T14:16:53.332Z,101775.34
2022-12-01T14:19:55.091Z,101789.03
2022-12-01T14:22:33.962Z,101778.22
2022-12-01T14:25:01.775Z,101783.47
2022-12-01T14:27:39.823Z,101774.53
2022-12-01T14:30:47.809Z,101772.47
2022-12-01T14:33:36.356Z,101782.81
2022-12-01T14:36:07.764Z,101777.50
2022-12-01T14:38:34.790Z,101784.44
2022-12-01T14:41:10.260Z,101782.66
2022-12-01T14:44:00.531Z,101787.78
2022-12-01T14:46:29.646Z,101782.31
2022-12-01T14:48:58.686Z,101791.03
2022-12-01T14:51:33.002Z,101786.41
2022-12-01T14:54:06.496Z,101773.13
2022-12-01T14:56:34.087Z,101780.19
2022-12-01T14:59:13.775Z,101775.75
2022-12-01T15:01:40.948Z,101780.19
2022-12-01T15:04:07.631Z,101782.81
2022-12-01T15:06:36.506Z,101783.59
2022-12-01T15:12:06.929Z,101792.47
2022-12-01T15:14:48.033Z,101790.66
2022-12-01T15:17:35.882Z,101789.91
2022-12-01T15:20:02.595Z,101782.25
2022-12-01T15:22:31.208Z,101783.31
2022-12-01T15:25:13.148Z,101781.75
2022-12-01T15:27:39.846Z,101783.53
2022-12-01T15:30:07.856Z,101787.91
2022-12-01T15:32:39.571Z,101788.72
2022-12-01T15:35:21.233Z,101792.97
2022-12-01T15:37:48.960Z,101785.84
2022-12-01T15:41:06.304Z,101783.03
2022-12-01T15:43:13.898Z,101783.88
2022-12-01T15:46:01.558Z,101783.59
2022-12-01T15:48:36.711Z,101782.53
2022-12-01T15:51:03.260Z,101783.94
2022-12-01T15:53:33.462Z,101787.13
2022-12-01T15:56:04.738Z,101787.69
2022-12-01T15:58:40.462Z,101787.69
2022-12-01T16:01:14.666Z,101789.50
2022-12-01T16:03:47.999Z,101791.28
2022-12-01T16:06:14.998Z,101786.97
2022-12-01T16:08:42.188Z,101786.88
2022-12-01T16:11:14.844Z,101784.25
2022-12-01T16:13:44.814Z,101785.22
2022-12-01T16:16:30.179Z,101780.16
2022-12-01T16:18:59.587Z,101785.50
2022-12-01T16:21:27.169Z,101789.09
2022-12-01T16:24:01.997Z,101784.56
2022-12-01T16:26:29.751Z,101789.75
2022-12-01T16:28:57.032Z,101782.59
2022-12-01T16:31:26.152Z,101784.41
2022-12-01T16:34:14.005Z,101788.84
2022-12-01T16:36:50.255Z,101795.91
2022-12-01T16:39:17.014Z,101791.13
2022-12-01T16:41:44.963Z,101797.16
2022-12-01T16:44:27.978Z,101796.25
2022-12-01T16:46:56.188Z,101799.47
2022-12-01T16:49:23.245Z,101796.75
2022-12-01T16:51:55.752Z,101796.75
2022-12-01T16:54:23.458Z,101793.31
2022-12-01T16:56:50.991Z,101793.31
2022-12-01T16:59:17.806Z,101801.25
2022-12-01T17:01:44.468Z,101803.81
2022-12-01T17:04:11.118Z,101797.66
2022-12-01T17:06:38.487Z,101792.34
2022-12-01T17:09:05.844Z,101799.28
2022-12-01T17:11:34.894Z,101792.41
2022-12-01T17:14:01.916Z,101796.75
2022-12-01T17:16:28.679Z,101803.81
2022-12-01T17:18:55.602Z,101796.03
2022-12-01T17:21:22.357Z,101791.69
2022-12-01T17:23:49.011Z,101807.34
2022-12-01T17:26:18.250Z,101811.75
2022-12-01T17:28:45.171Z,101810.13
2022-12-01T17:31:11.890Z,101806.50
2022-12-01T17:33:38.824Z,101805.66
2022-12-01T17:36:09.869Z,101806.50
2022-12-01T17:38:38.033Z,101808.22
2022-12-01T17:41:07.177Z,101806.50
2022-12-01T17:43:35.234Z,101809.97
2022-12-01T17:46:02.263Z,101810.13
2022-12-01T17:48:31.991Z,101811.75
2022-12-01T17:50:58.915Z,101809.97
2022-12-01T17:53:26.855Z,101803.81
2022-12-01T17:55:53.572Z,101808.13
2022-12-01T17:58:23.951Z,101805.44
2022-12-01T18:00:52.565Z,101801.09
2022-12-01T18:03:20.003Z,101797.66
2022-12-01T18:05:55.498Z,101795.94
2022-12-01T18:08:22.052Z,101800.34
2022-12-01T18:10:48.728Z,101796.03
2022-12-01T18:13:15.311Z,101804.78
2022-12-01T18:15:45.011Z,101808.13
2022-12-01T18:18:12.164Z,101806.50
2022-12-01T18:20:43.433Z,101807.41
2022-12-01T18:23:11.630Z,101801.34
2022-12-01T18:25:40.112Z,101800.28
2022-12-01T18:28:07.897Z,101799.28
2022-12-01T18:30:34.823Z,101797.28
2022-12-01T18:33:01.622Z,101798.03
2022-12-01T18:35:32.040Z,101799.50
2022-12-01T18:37:58.829Z,101795.00
2022-12-01T18:40:26.683Z,101805.31
2022-12-01T18:42:53.462Z,101801.69
2022-12-01T18:45:21.437Z,101800.63
2022-12-01T18:47:48.566Z,101807.47
2022-12-01T18:50:15.241Z,101803.16
2022-12-01T18:52:41.912Z,101812.72
2022-12-01T18:55:09.085Z,101804.78
2022-12-01T18:57:36.047Z,101802.97
2022-12-01T19:00:06.055Z,101803.72
2022-12-01T19:02:32.683Z,101800.97
2022-12-01T19:04:59.434Z,101801.88
2022-12-01T19:07:29.780Z,101802.78
2022-12-01T19:09:57.362Z,101797.41
2022-12-01T19:12:25.106Z,101797.41
2022-12-01T19:14:53.203Z,101798.19
2022-12-01T19:17:22.370Z,101799.19
2022-12-01T19:19:49.441Z,101800.09
2022-12-01T19:22:17.711Z,101801.16
2022-12-01T19:24:49.854Z,101803.03
2022-12-01T19:27:18.040Z,101796.94
2022-12-01T19:29:44.558Z,101801.25
2022-12-01T19:32:12.870Z,101802.78
2022-12-01T19:34:39.444Z,101798.47
2022-12-01T19:37:06.153Z,101798.47
2022-12-01T19:39:32.839Z,101802.09
2022-12-01T19:41:59.613Z,101802.25
2022-12-01T19:44:26.146Z,101797.81
2022-12-01T19:46:53.614Z,101799.47
2022-12-01T19:49:20.247Z,101805.50
2022-12-01T19:51:47.146Z,101807.19
2022-12-01T19:54:20.188Z,101800.97
2022-12-01T19:56:47.044Z,101805.34
2022-12-01T19:59:14.926Z,101800.81
2022-12-01T20:01:42.422Z,101800.66
2022-12-01T20:04:09.086Z,101796.13
2022-12-01T20:06:36.939Z,101793.41
2022-12-01T20:09:06.511Z,101794.13
2022-12-01T20:11:35.132Z,101797.56
2022-12-01T20:14:03.706Z,101799.28
2022-12-01T20:16:30.982Z,101798.47
2022-12-01T20:19:01.464Z,101795.66
2022-12-01T20:21:31.862Z,101797.22
2022-12-01T20:24:10.644Z,101795.25
2022-12-01T20:26:40.904Z,101803.81
2022-12-01T20:29:11.620Z,101792.44
2022-12-01T20:31:39.042Z,101795.97
2022-12-01T20:34:13.987Z,101792.34
2022-12-01T20:36:40.981Z,101793.25
2022-12-01T20:39:08.888Z,101805.44
2022-12-01T20:41:36.624Z,101801.91
2022-12-01T20:44:07.250Z,101785.31
2022-12-01T20:46:35.864Z,101784.59
2022-12-01T20:49:03.045Z,101787.41
2022-12-01T20:51:33.265Z,101785.66
2022-12-01T20:54:26.902Z,101788.34
2022-12-01T20:56:47.950Z,101778.72
2022-12-01T20:59:14.615Z,101788.28
2022-12-01T21:01:41.444Z,101786.56
2022-12-01T21:04:08.674Z,101789.19
2022-12-01T21:06:35.345Z,101782.97
2022-12-01T21:09:03.564Z,101789.81
2022-12-01T21:11:53.328Z,101783.69
2022-12-01T21:14:24.073Z,101792.34
2022-12-01T21:16:54.381Z,101778.09
2022-12-01T21:19:28.849Z,101779.63
2022-12-01T21:21:55.364Z,101785.66
2022-12-01T21:24:33.494Z,101790.03
2022-12-01T21:27:16.888Z,101785.50
2022-12-01T21:29:46.685Z,101782.72
2022-12-01T21:32:19.205Z,101775.56
2022-12-01T21:34:47.281Z,101785.25
2022-12-01T21:37:24.799Z,101779.00
2022-12-01T21:39:53.114Z,101774.50
2022-12-01T21:42:22.365Z,101777.19
2022-12-01T21:44:49.714Z,101777.19
2022-12-01T21:47:18.813Z,101783.50
2022-12-01T21:49:47.606Z,101781.72
2022-12-01T21:52:21.768Z,101780.00
2022-12-01T21:54:48.932Z,101782.63
2022-12-01T21:57:26.347Z,101779.72
2022-12-01T21:59:57.733Z,101774.41
2022-12-01T22:02:49.417Z,101776.84
2022-12-01T22:05:39.007Z,101769.63
2022-12-01T22:08:14.437Z,101773.03
2022-12-01T22:10:59.504Z,101762.56
2022-12-01T22:13:36.284Z,101765.28
2022-12-01T22:16:03.415Z,101767.00
2022-12-01T22:18:37.531Z,101763.56
2022-12-01T22:21:22.576Z,101760.94
2022-12-01T22:23:50.100Z,101768.88
2022-12-01T22:26:20.446Z,101769.78
2022-12-01T22:28:52.168Z,101767.19
2022-12-01T22:31:21.879Z,101758.25
2022-12-01T22:34:02.852Z,101762.56
2022-12-01T22:36:31.919Z,101754.63
2022-12-01T22:38:58.792Z,101755.47
2022-12-01T22:41:26.913Z,101758.00
2022-12-01T22:44:00.106Z,101753.56
2022-12-01T22:46:31.023Z,101749.94
2022-12-01T22:49:00.779Z,101754.38
2022-12-01T22:51:50.837Z,101742.09
2022-12-01T22:54:17.305Z,101745.53
2022-12-01T22:56:49.848Z,101747.31
2022-12-01T22:59:22.387Z,101750.94
2022-12-01T23:01:53.158Z,101754.38
2022-12-01T23:04:32.126Z,101743.84
2022-12-01T23:07:28.692Z,101746.34
2022-12-01T23:10:08.306Z,101742.84
2022-12-01T23:12:36.403Z,101742.72
2022-12-01T23:15:34.641Z,101738.41
2022-12-01T23:18:20.625Z,101737.41
2022-12-01T23:21:07.058Z,101738.22
2022-12-01T23:23:36.431Z,101735.63
2022-12-01T23:26:06.214Z,101736.41
2022-12-01T23:28:36.556Z,101723.16
2022-12-01T23:31:03.093Z,101734.97
2022-12-01T23:33:32.387Z,101726.84
2022-12-01T23:36:07.080Z,101723.97
2022-12-01T23:38:39.906Z,101722.16
2022-12-01T23:41:12.495Z,101726.28
2022-12-01T23:43:43.015Z,101722.59
2022-12-01T23:46:16.397Z,101712.97
2022-12-01T23:48:46.945Z,101716.47
2022-12-01T23:51:22.895Z,101715.59
2022-12-01T23:53:51.412Z,101729.34
2022-12-01T23:56:20.878Z,101720.72
2022-12-01T23:58:47.773Z,101715.59
